createdAt,value
2022-12-31T00:06:32.718Z,100155.59
2022-12-31T00:16:38.614Z,100158.75
2022-12-31T00:26:42.059Z,100174.41
2022-12-31T00:36:46.089Z,100119.56
2022-12-31T00:46:48.962Z,100174.00
2022-12-31T00:56:51.533Z,100170.53
2022-12-31T01:06:54.088Z,100209.38
2022-12-31T01:16:56.655Z,100215.13
2022-12-31T01:26:59.360Z,100176.63
2022-12-31T01:37:01.893Z,100221.88
2022-12-31T01:47:09.798Z,100227.25
2022-12-31T01:57:13.587Z,100255.81
2022-12-31T02:07:16.111Z,100242.09
2022-12-31T02:17:26.657Z,100273.56
2022-12-31T02:28:05.244Z,100266.38
2022-12-31T02:38:22.473Z,100258.28
2022-12-31T02:48:43.803Z,100259.72
2022-12-31T02:59:57.789Z,100271.03
2022-12-31T03:10:01.363Z,100304.50
2022-12-31T03:20:23.177Z,100275.91
2022-12-31T03:30:26.839Z,100273.47
2022-12-31T03:40:30.429Z,100299.00
2022-12-31T03:50:34.773Z,100289.63
2022-12-31T04:00:37.262Z,100308.16
2022-12-31T04:10:39.862Z,100311.66
2022-12-31T04:20:42.328Z,100315.16
2022-12-31T04:30:44.862Z,100335.19
2022-12-31T04:41:05.607Z,100349.06
2022-12-31T04:51:08.298Z,100392.13
2022-12-31T05:01:11.556Z,100380.53
2022-12-31T05:11:14.856Z,100425.69
2022-12-31T05:21:21.317Z,100390.03
2022-12-31T05:31:23.789Z,100374.00
2022-12-31T05:41:26.281Z,100394.22
2022-12-31T05:51:28.806Z,100389.19
2022-12-31T06:01:31.326Z,100429.22
2022-12-31T06:11:33.935Z,100402.50
2022-12-31T06:21:36.451Z,100484.06
2022-12-31T06:31:38.983Z,100473.50
2022-12-31T06:41:41.513Z,100485.72
2022-12-31T06:51:46.296Z,100524.75
2022-12-31T07:01:51.689Z,100524.34
2022-12-31T07:12:14.476Z,100534.66
2022-12-31T07:22:17.475Z,100512.78
2022-12-31T07:32:47.436Z,100557.88
2022-12-31T07:43:11.777Z,100577.47
2022-12-31T07:53:14.454Z,100536.16
2022-12-31T08:03:59.052Z,100565.94
2022-12-31T08:14:02.570Z,100539.91
2022-12-31T08:25:02.433Z,100571.97
2022-12-31T08:35:32.393Z,100586.00
2022-12-31T08:45:41.790Z,100552.88
2022-12-31T08:55:46.684Z,100549.88
2022-12-31T09:06:13.855Z,100599.22
2022-12-31T09:16:49.542Z,100575.91
2022-12-31T09:27:06.586Z,100604.28
2022-12-31T09:37:29.445Z,100557.38
2022-12-31T09:47:52.020Z,100609.25
2022-12-31T09:58:00.600Z,100578.25
2022-12-31T10:08:19.154Z,100549.88
2022-12-31T10:18:39.032Z,100547.69
2022-12-31T10:29:27.316Z,100545.50
2022-12-31T10:39:41.967Z,100561.50
2022-12-31T10:50:16.000Z,100556.06
2022-12-31T11:00:20.043Z,100541.00
2022-12-31T11:10:44.288Z,100542.59
2022-12-31T11:21:00.384Z,100528.56
2022-12-31T11:31:18.101Z,100529.50
2022-12-31T11:42:15.236Z,100549.09
2022-12-31T11:52:59.607Z,100514.09
2022-12-31T12:03:07.268Z,100494.69
2022-12-31T12:13:24.850Z,100489.44
2022-12-31T12:23:27.989Z,100513.75
2022-12-31T12:33:42.279Z,100472.38
2022-12-31T12:43:44.843Z,100474.47
2022-12-31T12:54:06.876Z,100506.72
2022-12-31T13:04:35.183Z,100494.34
2022-12-31T13:14:58.901Z,100490.88
2022-12-31T13:25:26.275Z,100476.19
2022-12-31T13:35:45.508Z,100500.59
2022-12-31T13:45:59.753Z,100536.94
2022-12-31T13:56:11.667Z,100510.97
2022-12-31T14:06:36.354Z,100522.19
2022-12-31T14:16:48.733Z,100512.94
2022-12-31T14:26:56.396Z,100503.19
2022-12-31T14:37:14.376Z,100521.66
2022-12-31T14:47:22.893Z,100536.97
2022-12-31T14:57:47.520Z,100529.16
2022-12-31T15:08:21.044Z,100557.50
2022-12-31T15:18:50.504Z,100565.75
2022-12-31T15:28:59.684Z,100525.69
2022-12-31T15:39:11.130Z,100576.88
2022-12-31T15:49:19.494Z,100565.44
2022-12-31T15:59:23.554Z,100565.13
2022-12-31T16:09:29.201Z,100613.81
2022-12-31T16:19:43.802Z,100603.59
2022-12-31T16:29:55.539Z,100599.94
2022-12-31T16:39:58.347Z,100603.63
2022-12-31T16:50:19.073Z,100587.91
2022-12-31T17:00:25.089Z,100598.34
2022-12-31T17:10:36.235Z,100579.00
2022-12-31T17:20:38.919Z,100609.47
2022-12-31T17:30:41.639Z,100567.72
2022-12-31T17:40:51.352Z,100542.88
2022-12-31T17:50:56.741Z,100554.44
2022-12-31T18:01:00.529Z,100591.22
2022-12-31T18:11:03.769Z,100607.41
2022-12-31T18:21:13.335Z,100575.84
2022-12-31T18:31:20.341Z,100604.06
2022-12-31T18:41:27.007Z,100625.31
2022-12-31T18:51:32.181Z,100615.59
2022-12-31T19:01:37.982Z,100568.03
2022-12-31T19:11:42.111Z,100588.38
2022-12-31T19:21:45.737Z,100613.38
2022-12-31T19:31:48.491Z,100605.13
2022-12-31T19:41:58.400Z,100609.41
2022-12-31T19:52:01.703Z,100587.84
2022-12-31T20:02:04.290Z,100601.59
2022-12-31T20:12:07.081Z,100576.91
2022-12-31T20:22:09.701Z,100562.50
2022-12-31T20:32:12.203Z,100577.56
2022-12-31T20:42:14.727Z,100580.06
2022-12-31T20:52:17.236Z,100580.06
2022-12-31T21:02:29.474Z,100575.00
2022-12-31T21:12:46.515Z,100561.75
2022-12-31T21:22:48.970Z,100560.69
2022-12-31T21:32:51.670Z,100563.59
2022-12-31T21:42:54.309Z,100553.00
2022-12-31T21:52:56.815Z,100579.16
2022-12-31T22:03:19.133Z,100601.09
2022-12-31T22:13:22.571Z,100569.34
2022-12-31T22:23:25.084Z,100563.50
2022-12-31T22:33:27.646Z,100558.09
2022-12-31T22:43:32.469Z,100577.03
2022-12-31T22:53:35.577Z,100552.13
2022-12-31T23:03:38.187Z,100523.53
2022-12-31T23:14:00.652Z,100518.66
2022-12-31T23:24:04.547Z,100528.31
2022-12-31T23:34:08.555Z,100515.00
2022-12-31T23:44:14.411Z,100528.59
2022-12-31T23:54:17.932Z,100493.16
